Time;durP1;ratioP1;P1;durP2;ratioP2;P2;SDS_P1;SDS_P2;PMS_P1;PMS_P2;Temp;Humidity;BMP_temperature;BMP_pressure;BME280_temperature;BME280_humidity;BME280_pressure;Samples;Min_cycle;Max_cycle;Signal;HPM_P1;HPM_P2
2022/11/22 04:45:37;;;;;;;24.75;10.40;;;;;;;-0.84;72.49;99007.16;6287568;22;20034;-91
2022/11/22 04:48:05;;;;;;;25.42;10.93;;;;;;;-0.55;72.91;99049.97;6231710;22;20046;-94
2022/11/22 05:19:51;;;;;;;29.15;10.75;;;;;;;-0.20;74.93;98955.63;6270429;22;20020;-93
2022/11/22 05:23:52;;;;;;;21.40;9.52;;;;;;;-0.32;74.83;98928.09;6271092;22;20090;-94
2022/11/22 05:25:07;;;;;;;25.05;10.52;;;;;;;-0.26;74.27;98914.47;6276674;22;20026;-93
2022/11/22 05:27:38;;;;;;;20.75;8.98;;;;;;;0.07;73.67;98982.53;6176962;22;20024;-93
2022/11/22 05:30:08;;;;;;;23.92;9.88;;;;;;;-0.25;73.55;98940.25;6248014;22;20018;-94
2022/11/22 05:32:41;;;;;;;19.15;8.48;;;;;;;0.29;74.18;99019.31;6199246;22;20035;-94
2022/11/22 05:38:08;;;;;;;23.33;9.07;;;;;;;0.44;74.11;98997.97;6297091;22;20012;-95
2022/11/22 05:40:41;;;;;;;21.38;9.82;;;;;;;-0.13;74.00;98897.16;6223873;22;20019;-95
2022/11/22 05:43:13;;;;;;;19.52;7.90;;;;;;;0.36;74.49;98977.69;6219141;22;20020;-94
2022/11/22 05:45:40;;;;;;;27.00;9.68;;;;;;;0.12;74.46;98946.81;6222275;22;20015;-94
2022/11/22 05:48:36;;;;;;;21.08;9.20;;;;;;;0.70;74.87;99007.06;6231976;23;20024;-95
2022/11/22 05:51:42;;;;;;;20.83;8.65;;;;;;;0.63;74.48;98968.78;6268393;23;20023;-94
2022/11/22 05:54:19;;;;;;;18.88;8.75;;;;;;;0.01;73.85;98880.63;6191242;23;20480;-93
2022/11/22 05:56:47;;;;;;;19.58;8.77;;;;;;;0.41;73.89;98931.25;6187856;23;20016;-93
2022/11/22 06:01:52;;;;;;;19.05;7.95;;;;;;;0.03;74.40;98889.22;6255125;23;20019;-95
2022/11/22 06:05:08;;;;;;;18.17;7.75;;;;;;;0.07;73.74;98875.03;6245882;23;20046;-94
2022/11/22 06:07:40;;;;;;;16.58;7.82;;;;;;;0.08;74.17;98873.97;6164993;23;20020;-95
2022/11/22 06:10:27;;;;;;;20.60;7.95;;;;;;;0.42;74.96;98916.72;6189721;23;20003;-95
2022/11/22 06:13:02;;;;;;;17.52;7.45;;;;;;;0.11;74.69;98868.09;6242912;23;20012;-92
2022/11/22 06:15:29;;;;;;;18.98;7.82;;;;;;;0.71;74.88;98941.44;6161055;23;20454;-95
2022/11/22 06:17:57;;;;;;;15.73;6.97;;;;;;;0.44;74.42;98898.47;6189031;23;20042;-94
2022/11/22 06:20:25;;;;;;;15.05;5.70;;;;;;;0.57;73.81;98919.56;6236711;23;20007;-96
2022/11/22 06:23:01;;;;;;;15.52;6.95;;;;;;;0.49;74.27;98914.63;6187341;23;20075;-95
2022/11/22 06:25:34;;;;;;;18.55;7.00;;;;;;;1.11;74.25;98986.66;6242063;23;20019;-95
2022/11/22 06:30:42;;;;;;;17.95;6.35;;;;;;;0.43;74.00;98853.81;6262608;23;20047;-95
2022/11/22 06:33:09;;;;;;;18.23;6.43;;;;;;;0.58;73.99;98853.94;6209169;23;20036;-94
2022/11/22 06:35:38;;;;;;;11.63;5.95;;;;;;;1.13;73.93;98917.22;6208982;23;20008;-94
2022/11/22 06:38:04;;;;;;;15.02;7.18;;;;;;;1.16;73.65;98922.09;6185212;23;20012;-94
2022/11/22 06:40:30;;;;;;;12.55;5.32;;;;;;;1.05;73.54;98908.81;6185238;23;20031;-94
2022/11/22 06:43:08;;;;;;;12.70;5.28;;;;;;;0.56;73.32;98833.72;6211084;23;20035;-95
2022/11/22 06:45:46;;;;;;;11.00;5.40;;;;;;;0.76;73.44;98857.25;6215623;23;20016;-93
2022/11/22 06:48:12;;;;;;;16.50;6.00;;;;;;;0.56;73.62;98834.53;6191663;23;20000;-93
2022/11/22 06:50:41;;;;;;;11.75;5.18;;;;;;;1.06;73.58;98911.28;6197295;22;20114;-94
2022/11/22 06:53:31;;;;;;;11.50;5.25;;;;;;;0.96;73.54;98878.94;6290435;22;20028;-95
2022/11/22 07:00:02;;;;;;;12.20;5.45;;;;;;;0.88;73.78;98837.16;6253228;22;20011;-94
2022/11/22 07:02:33;;;;;;;13.20;5.25;;;;;;;1.33;73.62;98911.13;6223006;22;20031;-94
2022/11/22 07:04:59;;;;;;;11.27;5.07;;;;;;;0.78;74.01;98820.97;6220100;22;20048;-94
2022/11/22 07:07:26;;;;;;;10.18;4.60;;;;;;;0.88;73.65;98830.97;6241209;22;20012;-94
2022/11/22 07:10:19;;;;;;;10.57;4.40;;;;;;;1.28;73.55;98889.56;6239765;22;20015;-94
2022/11/22 07:12:48;;;;;;;9.60;4.97;;;;;;;1.12;74.50;98860.94;6252496;22;20026;-94
2022/11/22 07:15:18;;;;;;;9.68;4.57;;;;;;;1.50;74.62;98899.38;6239607;22;20045;-95
2022/11/22 07:17:59;;;;;;;8.00;4.07;;;;;;;0.99;74.31;98813.78;6222572;22;20007;-94
2022/11/22 07:20:39;;;;;;;8.93;3.80;;;;;;;1.09;73.89;98819.25;6303601;22;20056;-94
2022/11/22 07:23:11;;;;;;;7.82;4.05;;;;;;;1.50;73.90;98851.69;6245714;22;20027;-93
2022/11/22 07:25:59;;;;;;;10.50;3.92;;;;;;;1.23;73.49;98800.72;6294204;22;20016;-94
2022/11/22 07:28:36;;;;;;;9.23;3.75;;;;;;;1.27;73.21;98817.94;6221310;22;20015;-95
2022/11/22 07:34:57;;;;;;;8.43;3.55;;;;;;;2.07;72.75;98915.41;6269955;22;20020;-94
2022/11/22 07:38:38;;;;;;;6.15;3.42;;;;;;;2.09;72.89;98921.34;6207498;23;20024;-95
2022/11/22 07:41:42;;;;;;;6.20;3.65;;;;;;;1.41;72.16;98794.03;6218424;23;20008;-94
2022/11/22 07:44:12;;;;;;;8.88;4.30;;;;;;;1.53;72.44;98801.88;6202337;22;20114;-94
2022/11/22 07:56:25;;;;;;;10.98;5.13;;;;;;;2.18;73.41;98904.63;6226861;22;20025;-95
2022/11/22 08:02:15;;;;;;;7.90;4.25;;;;;;;1.55;73.09;98791.63;6269235;23;20024;-95
2022/11/22 08:05:30;;;;;;;8.63;4.45;;;;;;;1.52;73.39;98801.03;6169203;23;20029;-96
2022/11/22 08:08:28;;;;;;;8.00;4.10;;;;;;;1.61;73.39;98812.09;6121567;23;20052;-95
2022/11/22 08:11:29;;;;;;;10.73;4.47;;;;;;;2.13;73.34;98888.47;6077761;23;20009;-94
2022/11/22 08:14:46;;;;;;;9.25;4.43;;;;;;;1.65;72.91;98805.09;6155847;23;20021;-94
2022/11/22 08:17:39;;;;;;;12.05;4.32;;;;;;;2.33;72.59;98894.69;5950049;24;20044;-96
2022/11/22 08:23:31;;;;;;;11.05;4.47;;;;;;;1.92;72.74;98822.94;5929609;24;20025;-96
2022/11/22 08:26:42;;;;;;;7.28;4.20;;;;;;;1.82;72.58;98797.59;5948375;24;20026;-93
2022/11/22 08:29:12;;;;;;;9.55;4.65;;;;;;;1.81;73.04;98793.28;5922899;24;20025;-95
2022/11/22 08:37:36;;;;;;;7.97;3.83;;;;;;;2.72;73.23;98896.03;6299473;22;20027;-96
2022/11/22 08:47:19;;;;;;;8.20;4.40;;;;;;;2.61;73.03;98854.72;6266152;22;20027;-96
2022/11/22 08:50:17;;;;;;;7.70;3.60;;;;;;;2.22;72.95;98778.97;6091008;23;20038;-94
2022/11/22 08:53:37;;;;;;;6.30;3.53;;;;;;;2.68;72.85;98827.47;6074206;23;20018;-94
2022/11/22 08:57:06;;;;;;;10.85;4.15;;;;;;;2.90;72.83;98876.56;6091331;23;20041;-95
2022/11/22 08:59:41;;;;;;;8.20;4.30;;;;;;;2.89;73.29;98885.75;6114436;23;20018;-94
2022/11/22 09:02:22;;;;;;;7.30;4.35;;;;;;;3.02;72.96;98865.47;6024876;23;20026;-94
2022/11/22 09:10:06;;;;;;;10.57;4.32;;;;;;;2.52;71.74;98743.88;5949604;24;20021;-93
2022/11/22 09:13:05;;;;;;;6.47;3.60;;;;;;;2.90;72.13;98819.84;5932823;24;20012;-91
2022/11/22 09:19:40;;;;;;;8.57;3.42;;;;;;;2.70;72.19;98793.72;6166306;22;20009;-94
2022/11/22 09:22:17;;;;;;;8.10;4.15;;;;;;;2.51;72.18;98753.03;6247206;23;20026;-93
2022/11/22 09:24:59;;;;;;;7.93;4.30;;;;;;;2.81;71.68;98783.72;6243672;23;20016;-92
2022/11/22 09:31:08;;;;;;;10.95;3.92;;;;;;;3.27;71.42;98845.66;6265274;22;20024;-93
2022/11/22 09:34:12;;;;;;;6.75;3.75;;;;;;;2.79;71.88;98794.00;6214979;23;20042;-96
2022/11/22 09:36:45;;;;;;;6.05;4.00;;;;;;;3.00;71.72;98810.91;6240998;23;20023;-93
2022/11/22 09:39:25;;;;;;;9.32;4.32;;;;;;;3.06;71.82;98813.31;6271993;22;20039;-92
2022/11/22 09:42:49;;;;;;;6.93;3.75;;;;;;;3.45;71.66;98858.56;6243228;23;20013;-95
2022/11/22 09:46:22;;;;;;;6.43;3.75;;;;;;;3.45;71.24;98855.06;6149456;23;20080;-94
2022/11/22 09:49:48;;;;;;;6.40;4.20;;;;;;;2.91;71.48;98780.19;6121674;23;20014;-94
2022/11/22 09:52:48;;;;;;;8.38;4.00;;;;;;;2.71;71.70;98745.97;6030045;23;20037;-94
2022/11/22 09:56:40;;;;;;;7.57;4.15;;;;;;;2.78;72.00;98749.16;6026141;23;20019;-93
2022/11/22 09:59:37;;;;;;;5.82;3.67;;;;;;;3.28;72.18;98841.88;5983212;23;20048;-95
2022/11/22 10:02:41;;;;;;;9.30;4.25;;;;;;;2.86;72.34;98775.59;6008204;23;20015;-92
2022/11/22 10:06:13;;;;;;;9.90;3.83;;;;;;;2.67;72.23;98734.91;6037634;23;20035;-91
2022/11/22 10:09:42;;;;;;;9.82;4.32;;;;;;;3.39;71.97;98834.53;5989881;23;20052;-92
2022/11/22 10:16:34;;;;;;;6.22;3.53;;;;;;;3.41;72.27;98825.06;6016550;23;20075;-93
2022/11/22 10:20:07;;;;;;;7.78;3.95;;;;;;;3.42;72.27;98826.69;6034601;23;20035;-94
2022/11/22 10:23:28;;;;;;;5.53;3.15;;;;;;;2.75;72.61;98737.06;5965056;23;20007;-93
2022/11/22 10:26:58;;;;;;;7.78;3.65;;;;;;;3.34;72.70;98824.53;5939758;24;20019;-92
2022/11/22 10:30:16;;;;;;;5.68;3.20;;;;;;;2.86;72.76;98747.81;5922552;24;20025;-93
2022/11/22 10:33:17;;;;;;;6.07;3.38;;;;;;;3.21;72.79;98798.13;5846879;24;20084;-91
2022/11/22 10:36:01;;;;;;;7.00;3.30;;;;;;;3.21;73.36;98825.97;5902164;24;20022;-92
2022/11/22 10:38:53;;;;;;;5.90;3.00;;;;;;;3.21;74.06;98817.88;5905326;24;20025;-92
2022/11/22 10:41:39;;;;;;;7.13;3.55;;;;;;;3.20;74.01;98818.13;5905789;24;20037;-91
2022/11/22 10:44:22;;;;;;;8.32;4.25;;;;;;;2.76;73.75;98741.38;5906801;24;20029;-91
2022/11/22 10:46:59;;;;;;;11.05;6.57;;;;;;;3.45;73.63;98809.13;5862809;24;20018;-92
2022/11/22 10:49:28;;;;;;;14.30;9.23;;;;;;;3.64;72.99;98804.69;5936597;24;20021;-94
2022/11/22 10:52:12;;;;;;;16.08;9.98;;;;;;;3.27;73.13;98734.91;5968116;24;20100;-95
2022/11/22 10:55:01;;;;;;;13.30;8.10;;;;;;;3.71;72.34;98797.06;5968205;24;20460;-93
2022/11/22 10:57:48;;;;;;;14.38;6.80;;;;;;;3.72;72.70;98793.28;5966895;24;20020;-93
2022/11/22 11:00:19;;;;;;;17.90;9.80;;;;;;;3.58;72.85;98796.88;5964595;24;20047;-94
2022/11/22 11:03:04;;;;;;;11.35;6.50;;;;;;;3.72;73.32;98795.16;5994284;23;20027;-93
2022/11/22 11:05:52;;;;;;;14.02;7.75;;;;;;;3.73;72.42;98740.00;6047294;23;20019;-93
2022/11/22 11:08:49;;;;;;;12.52;6.70;;;;;;;3.58;71.77;98721.22;6029636;23;20023;-95
2022/11/22 11:11:40;;;;;;;11.02;6.05;;;;;;;3.50;71.83;98728.00;6060655;23;20023;-94
2022/11/22 11:14:34;;;;;;;9.98;5.85;;;;;;;3.75;72.30;98756.75;6008002;23;20023;-93
2022/11/22 11:17:04;;;;;;;11.82;6.88;;;;;;;3.50;71.61;98709.09;6028830;23;20019;-93
2022/11/22 11:19:37;;;;;;;7.88;4.40;;;;;;;3.81;71.33;98763.75;6043568;23;20516;-94
2022/11/22 11:22:15;;;;;;;11.55;5.07;;;;;;;3.95;71.71;98786.34;6040037;23;20315;-93
2022/11/22 11:24:45;;;;;;;7.60;4.88;;;;;;;3.35;71.76;98685.72;6063597;23;20073;-92
2022/11/22 11:27:33;;;;;;;10.85;5.03;;;;;;;3.26;72.13;98715.19;6061199;23;20051;-91
2022/11/22 11:30:14;;;;;;;11.05;4.30;;;;;;;3.61;72.62;98791.72;6134229;23;20028;-93
2022/11/22 11:33:03;;;;;;;;;;;;;;;3.54;73.14;98785.81;6134152;23;20001;-92
2022/11/22 11:36:09;;;;;;;10.50;5.28;;;;;;;2.98;73.78;98714.00;6174703;23;19920;-93
2022/11/22 11:38:56;;;;;;;8.75;4.88;;;;;;;3.34;73.97;98762.41;6161109;23;20093;-91
2022/11/22 11:41:43;;;;;;;6.03;3.55;;;;;;;3.35;74.00;98766.75;6142135;23;20008;-91
2022/11/22 11:44:39;;;;;;;10.00;4.10;;;;;;;3.25;74.59;98767.63;6189435;23;20069;-90
2022/11/22 11:47:18;;;;;;;10.10;4.45;;;;;;;3.06;74.78;98753.94;6130847;23;20025;-93
2022/11/22 11:49:53;;;;;;;13.50;4.25;;;;;;;2.96;75.04;98755.88;6134738;23;20451;-91
2022/11/22 11:52:22;;;;;;;11.98;5.10;;;;;;;2.99;75.15;98734.53;6183847;23;20021;-90
2022/11/22 11:55:05;;;;;;;8.23;5.05;;;;;;;3.21;75.01;98771.13;6152707;23;20023;-90
2022/11/22 11:57:35;;;;;;;11.65;4.85;;;;;;;3.14;75.23;98766.03;6126424;23;20021;-90
2022/11/22 12:00:45;;;;;;;9.68;4.85;;;;;;;2.98;75.08;98729.38;6158829;23;20017;-90
2022/11/22 12:03:34;;;;;;;8.30;4.60;;;;;;;2.79;74.99;98705.72;6151366;23;20059;-89
2022/11/22 12:06:13;;;;;;;8.80;4.18;;;;;;;3.11;75.08;98768.47;6130427;23;20041;-90
2022/11/22 12:09:21;;;;;;;9.95;4.53;;;;;;;3.16;74.95;98768.47;6156946;23;20017;-91
2022/11/22 12:11:52;;;;;;;7.22;3.90;;;;;;;2.89;75.13;98731.88;6143650;23;20048;-90
2022/11/22 12:14:25;;;;;;;8.65;4.20;;;;;;;2.68;75.67;98709.56;6205718;23;20016;-91
2022/11/22 12:16:57;;;;;;;7.30;4.28;;;;;;;2.39;75.67;98674.31;6204886;23;20058;-90
2022/11/22 12:19:51;;;;;;;8.05;4.93;;;;;;;3.04;75.65;98761.47;6209059;23;20020;-93
2022/11/22 12:22:39;;;;;;;9.43;4.70;;;;;;;2.50;76.16;98683.19;6207157;23;20104;-89
2022/11/22 12:25:53;;;;;;;7.88;4.22;;;;;;;2.68;76.27;98709.56;6238038;23;20013;-92
2022/11/22 12:28:30;;;;;;;7.72;4.90;;;;;;;2.80;76.50;98730.81;6181481;23;20019;-90
2022/11/22 12:34:42;;;;;;;10.10;4.35;;;;;;;2.65;76.39;98702.03;6202353;23;19923;-89
2022/11/22 12:37:27;;;;;;;9.40;3.73;;;;;;;2.83;76.64;98741.88;6175342;23;20023;-91
2022/11/22 12:40:03;;;;;;;7.90;4.03;;;;;;;2.81;76.99;98746.75;6177409;23;20012;-90
2022/11/22 12:42:43;;;;;;;5.80;3.20;;;;;;;2.51;77.06;98699.09;6205636;23;19997;-90
2022/11/22 12:45:38;;;;;;;7.32;3.30;;;;;;;2.13;77.30;98643.13;6202604;23;20035;-90
2022/11/22 12:48:40;;;;;;;10.25;3.45;;;;;;;2.72;77.34;98753.00;6197556;23;20021;-90
2022/11/22 12:51:55;;;;;;;5.43;2.92;;;;;;;2.28;77.30;98680.81;6175244;23;20451;-90
2022/11/22 12:55:20;;;;;;;4.63;2.92;;;;;;;2.55;77.17;98721.75;6204482;23;20032;-92
2022/11/22 12:58:10;;;;;;;7.03;3.05;;;;;;;2.74;77.29;98737.31;6181190;23;20012;-91
2022/11/22 13:01:08;;;;;;;6.40;3.30;;;;;;;2.67;77.45;98723.31;6153218;23;20008;-91
2022/11/22 13:04:03;;;;;;;6.72;3.33;;;;;;;2.45;77.30;98716.38;6175690;23;20016;-91
2022/11/22 13:06:56;;;;;;;5.22;3.28;;;;;;;2.40;77.66;98702.91;6149178;23;20013;-90
2022/11/22 13:10:09;;;;;;;8.82;3.50;;;;;;;2.74;77.32;98748.13;6152630;23;20032;-90
2022/11/22 13:15:36;;;;;;;7.32;3.50;;;;;;;2.21;77.38;98677.59;6112709;23;20021;-89
2022/11/22 13:18:11;;;;;;;8.77;5.00;;;;;;;2.67;77.78;98745.72;6071697;23;20022;-89
2022/11/22 13:20:56;;;;;;;6.43;4.10;;;;;;;2.25;77.79;98682.19;6114971;23;20004;-89
2022/11/22 13:23:50;;;;;;;8.25;4.72;;;;;;;2.72;77.93;98745.72;6113303;23;20361;-89
2022/11/22 13:26:52;;;;;;;9.40;4.30;;;;;;;2.72;77.71;98750.31;6115656;23;20018;-88
2022/11/22 13:29:27;;;;;;;9.73;4.55;;;;;;;2.53;77.70;98715.00;6114160;23;20037;-92
2022/11/22 13:32:11;;;;;;;8.95;4.15;;;;;;;2.70;77.92;98750.56;6112460;23;20022;-89
2022/11/22 13:34:42;;;;;;;5.88;3.40;;;;;;;2.37;77.76;98695.34;6117946;23;20025;-88
2022/11/22 13:37:14;;;;;;;5.63;3.38;;;;;;;2.06;77.58;98643.41;6136121;23;20586;-88
2022/11/22 13:39:48;;;;;;;8.30;3.47;;;;;;;2.78;77.67;98752.72;6110098;23;20017;-88
2022/11/22 13:42:22;;;;;;;10.27;4.78;;;;;;;2.35;77.70;98695.66;6085914;23;20017;-90
2022/11/22 13:45:06;;;;;;;6.47;4.40;;;;;;;2.74;77.74;98748.91;6087141;23;20520;-89
2022/11/22 13:50:39;;;;;;;7.22;4.03;;;;;;;2.78;77.90;98738.38;6048617;23;20083;-89
2022/11/22 13:53:18;;;;;;;6.28;4.03;;;;;;;2.73;77.89;98741.13;6074058;23;20025;-91
2022/11/22 13:55:46;;;;;;;8.38;4.97;;;;;;;2.75;77.86;98736.25;6114689;23;20028;-89
2022/11/22 13:58:24;;;;;;;6.78;4.07;;;;;;;2.74;78.04;98734.63;6113716;23;20017;-90
2022/11/22 14:00:55;;;;;;;9.95;4.38;;;;;;;2.24;78.32;98671.66;6146883;23;20044;-89
2022/11/22 14:03:35;;;;;;;7.72;4.15;;;;;;;2.66;78.49;98746.00;6124638;23;20013;-89
2022/11/22 14:06:23;;;;;;;8.80;4.45;;;;;;;2.69;78.48;98738.16;6099740;23;20001;-92
2022/11/22 14:09:39;;;;;;;13.35;4.38;;;;;;;2.75;78.32;98749.75;6146578;23;20097;-92
2022/11/22 14:12:48;;;;;;;7.75;4.32;;;;;;;2.59;78.29;98711.22;6119263;23;20089;-93
2022/11/22 14:15:26;;;;;;;10.18;4.30;;;;;;;2.08;78.00;98647.44;6148779;23;20044;-94
2022/11/22 14:22:10;;;;;;;8.73;4.63;;;;;;;2.65;78.55;98738.97;6139536;23;20024;-88
2022/11/22 14:24:48;;;;;;;7.65;4.47;;;;;;;2.68;78.46;98735.72;6170911;23;19994;-88
2022/11/22 14:31:31;;;;;;;9.85;4.65;;;;;;;2.45;78.50;98705.59;6174074;23;20111;-88
2022/11/22 14:38:34;;;;;;;6.13;3.90;;;;;;;2.68;78.65;98725.75;6096138;23;20060;-92
2022/11/22 14:41:40;;;;;;;10.80;5.35;;;;;;;2.74;78.45;98727.31;6115828;23;20021;-93
2022/11/22 14:44:23;;;;;;;12.93;5.00;;;;;;;2.41;78.72;98676.72;6163594;23;20013;-90
2022/11/22 14:47:16;;;;;;;8.85;5.15;;;;;;;2.48;78.57;98688.84;6165105;23;20017;-90
2022/11/22 14:49:52;;;;;;;8.07;4.88;;;;;;;1.84;78.78;98577.16;6140206;23;20519;-89
2022/11/22 14:52:28;;;;;;;11.40;5.47;;;;;;;2.47;78.62;98681.84;6091194;23;20018;-93
2022/11/22 14:55:06;;;;;;;13.68;6.30;;;;;;;2.48;78.62;98680.75;6116723;23;19997;-89
2022/11/22 14:57:36;;;;;;;8.43;4.82;;;;;;;2.39;79.47;98646.56;6137847;23;20060;-87
2022/11/22 15:00:25;;;;;;;11.75;5.60;;;;;;;2.55;78.83;98665.09;6099386;23;19998;-93
2022/11/22 15:04:04;;;;;;;11.20;5.72;;;;;;;2.89;78.78;98714.88;6176165;23;20569;-91
2022/11/22 15:07:09;;;;;;;11.00;5.82;;;;;;;2.48;78.49;98645.69;6145548;23;20021;-90
2022/11/22 15:09:42;;;;;;;13.30;6.13;;;;;;;2.92;78.58;98714.31;6183384;23;20005;-91
2022/11/22 15:12:31;;;;;;;11.15;5.75;;;;;;;2.86;78.06;98705.44;6204715;23;20072;-93
2022/11/22 15:15:29;;;;;;;11.80;5.95;;;;;;;2.32;78.07;98638.75;6180218;23;20032;-93
2022/11/22 15:18:30;;;;;;;14.95;7.03;;;;;;;2.83;78.25;98712.19;6093922;23;20018;-91
2022/11/22 15:20:57;;;;;;;13.32;5.85;;;;;;;2.66;78.25;98690.13;6112814;23;20024;-90
2022/11/22 15:23:27;;;;;;;15.50;6.95;;;;;;;1.91;78.39;98581.44;6089456;23;20117;-91
2022/11/22 15:26:17;;;;;;;11.52;6.45;;;;;;;2.73;78.70;98716.81;6093261;23;19998;-91
2022/11/22 15:28:52;;;;;;;12.30;6.22;;;;;;;2.47;78.61;98673.75;6093144;23;20077;-89
2022/11/22 15:31:27;;;;;;;16.20;6.65;;;;;;;2.75;78.62;98723.56;6063636;23;20026;-91
2022/11/22 15:40:57;;;;;;;12.13;5.57;;;;;;;2.10;78.71;98634.50;6079405;23;20014;-88
2022/11/22 15:43:52;;;;;;;11.80;6.07;;;;;;;2.77;78.58;98715.19;6078296;23;20100;-89
2022/11/22 15:46:27;;;;;;;12.75;6.05;;;;;;;2.58;78.46;98682.59;6055239;23;20029;-89
2022/11/22 15:49:23;;;;;;;14.10;5.82;;;;;;;2.81;78.31;98721.63;6127699;23;20018;-89
2022/11/22 15:51:56;;;;;;;9.07;5.47;;;;;;;2.81;78.32;98721.63;6079081;23;20040;-91
2022/11/22 15:54:38;;;;;;;8.88;4.95;;;;;;;2.41;78.35;98650.56;6083192;23;20061;-88
2022/11/22 16:01:03;;;;;;;9.77;5.03;;;;;;;2.32;78.18;98633.38;6171652;23;20016;-89
2022/11/22 16:03:38;;;;;;;12.18;5.70;;;;;;;2.16;78.27;98605.63;6054835;23;20023;-87
2022/11/22 16:06:09;;;;;;;10.07;5.53;;;;;;;2.52;78.38;98668.34;6030961;23;20018;-88
2022/11/22 16:08:36;;;;;;;11.23;5.07;;;;;;;2.30;78.50;98635.50;6077310;23;20162;-89
2022/11/22 16:11:04;;;;;;;8.85;5.57;;;;;;;2.57;78.74;98667.50;6101082;23;20037;-89
2022/11/22 16:13:35;;;;;;;17.77;7.80;;;;;;;2.43;79.05;98661.91;6056214;23;20272;-86
2022/11/22 16:16:25;;;;;;;15.18;5.25;;;;;;;2.81;78.67;98705.44;6110367;23;20022;-85
2022/11/22 16:19:20;;;;;;;8.68;5.20;;;;;;;2.81;78.38;98713.53;6016463;23;20463;-85
2022/11/22 16:21:59;;;;;;;11.52;6.10;;;;;;;2.80;78.46;98711.94;6000553;23;20023;-85
2022/11/22 16:24:29;;;;;;;10.90;6.28;;;;;;;2.67;78.34;98680.94;5995750;23;20047;-88
2022/11/22 16:27:00;;;;;;;9.43;5.85;;;;;;;2.51;78.50;98657.81;6000953;23;20451;-90
2022/11/22 16:29:35;;;;;;;12.60;6.28;;;;;;;2.75;78.52;98711.97;5975191;23;20012;-90
2022/11/22 16:32:08;;;;;;;11.80;6.18;;;;;;;2.46;78.33;98666.75;5999991;23;20023;-90
2022/11/22 16:34:36;;;;;;;13.73;5.90;;;;;;;2.72;78.42;98716.03;5994928;23;20015;-89
2022/11/22 16:40:17;;;;;;;13.27;5.72;;;;;;;2.40;78.70;98665.16;6140633;23;20021;-87
2022/11/22 16:42:46;;;;;;;16.83;6.07;;;;;;;2.19;79.03;98626.66;6121797;23;20073;-88
2022/11/22 16:45:19;;;;;;;18.80;6.88;;;;;;;2.42;79.10;98654.91;6147288;23;20423;-89
2022/11/22 16:47:49;;;;;;;15.00;7.10;;;;;;;2.69;78.91;98691.47;6166601;23;20021;-90
2022/11/22 16:50:16;;;;;;;19.40;8.13;;;;;;;2.66;79.02;98681.25;6170161;23;20055;-87
2022/11/22 16:53:00;;;;;;;17.85;8.77;;;;;;;2.56;78.93;98653.22;6199176;23;20016;-90
2022/11/22 16:55:33;;;;;;;13.38;7.35;;;;;;;2.66;78.86;98675.84;6207209;23;20020;-88
2022/11/22 16:58:19;;;;;;;20.92;9.07;;;;;;;2.71;79.03;98686.59;6232300;23;20012;-89
2022/11/22 17:00:46;;;;;;;16.27;8.45;;;;;;;2.74;79.11;98691.44;6233624;23;20023;-87
2022/11/22 17:03:30;;;;;;;22.75;9.05;;;;;;;2.47;79.12;98651.34;6160039;23;20004;-87
2022/11/22 17:09:16;;;;;;;17.20;9.57;;;;;;;2.49;79.21;98650.00;6229424;23;20031;-87
2022/11/22 17:11:46;;;;;;;23.73;8.48;;;;;;;2.78;78.98;98690.63;6229810;23;20016;-89
2022/11/22 17:14:27;;;;;;;23.30;8.68;;;;;;;2.69;79.23;98678.00;6182734;23;20112;-90
2022/11/22 17:17:26;;;;;;;22.20;8.27;;;;;;;2.75;79.67;98684.97;6234442;23;20016;-94
2022/11/22 17:19:57;;;;;;;27.40;8.60;;;;;;;1.95;79.35;98547.47;6207009;23;20085;-91
2022/11/22 17:22:38;;;;;;;24.02;7.60;;;;;;;1.98;79.28;98568.50;6187882;23;20111;-92
2022/11/22 17:25:31;;;;;;;21.98;7.15;;;;;;;2.47;79.21;98627.88;6203871;23;20453;-89
2022/11/22 17:28:01;;;;;;;21.48;8.07;;;;;;;2.61;79.29;98670.44;6225103;23;20024;-88
2022/11/22 17:30:32;;;;;;;24.15;8.00;;;;;;;2.41;79.34;98652.47;6179955;23;20035;-92
2022/11/22 17:33:10;;;;;;;30.83;8.05;;;;;;;2.04;79.68;98597.84;6205929;23;20020;-91
2022/11/22 17:35:38;;;;;;;26.88;8.43;;;;;;;2.28;79.49;98624.19;6204989;23;20081;-88
2022/11/22 17:38:19;;;;;;;23.05;9.10;;;;;;;2.50;79.50;98657.00;6202692;23;20020;-90
2022/11/22 17:40:58;;;;;;;25.08;8.35;;;;;;;2.23;79.42;98622.31;6230371;23;20040;-91
2022/11/22 17:43:49;;;;;;;26.60;8.27;;;;;;;2.78;79.70;98704.13;6259976;23;20047;-93
2022/11/22 17:46:28;;;;;;;34.42;7.93;;;;;;;2.36;79.63;98634.41;6116225;23;20076;-90
2022/11/22 17:48:58;;;;;;;22.83;8.57;;;;;;;2.72;79.82;98699.84;6067127;23;20399;-91
2022/11/22 17:51:45;;;;;;;29.23;8.05;;;;;;;2.46;79.57;98639.78;6070280;23;20049;-91
2022/11/22 17:54:15;;;;;;;24.98;7.75;;;;;;;2.53;79.16;98664.56;6090267;23;20101;-90
2022/11/22 18:00:00;;;;;;;34.22;8.10;;;;;;;2.72;79.80;98712.53;6231958;23;20028;-93
2022/11/22 18:03:18;;;;;;;52.17;9.88;;;;;;;2.78;79.91;98695.19;6236429;22;20032;-90
2022/11/22 18:06:00;;;;;;;61.63;9.55;;;;;;;2.74;79.68;98702.25;6184407;23;20028;-88
2022/11/22 18:08:29;;;;;;;44.63;9.25;;;;;;;2.67;79.82;98689.03;6175609;23;20355;-88
2022/11/22 18:11:03;;;;;;;41.85;8.93;;;;;;;2.74;79.80;98696.84;6142774;23;20035;-94
2022/11/22 18:13:36;;;;;;;78.78;10.20;;;;;;;2.30;79.87;98640.91;6177118;23;20088;-89
2022/11/22 18:16:05;;;;;;;69.75;8.90;;;;;;;2.29;79.96;98606.94;6169822;23;20012;-89
2022/11/22 18:19:17;;;;;;;59.63;8.52;;;;;;;2.82;79.84;98680.09;6201595;23;20023;-89
2022/11/22 18:22:15;;;;;;;47.83;9.20;;;;;;;2.72;79.69;98678.25;6055146;23;20019;-89
2022/11/22 18:24:43;;;;;;;64.05;9.35;;;;;;;2.61;79.83;98671.25;6004487;23;20033;-91
2022/11/22 18:27:12;;;;;;;47.08;9.82;;;;;;;2.87;79.61;98700.84;6049269;23;20023;-90
2022/11/22 18:30:03;;;;;;;54.67;9.77;;;;;;;2.86;79.36;98699.22;6050474;23;20105;-88
2022/11/22 18:32:35;;;;;;;89.07;9.52;;;;;;;2.73;79.79;98706.03;6036062;23;19999;-91
2022/11/22 18:35:50;;;;;;;41.70;9.60;;;;;;;2.84;80.14;98699.50;6064203;23;19998;-87
2022/11/22 18:38:25;;;;;;;53.55;9.50;;;;;;;2.64;79.51;98664.50;6147049;23;20025;-88
2022/11/22 18:40:52;;;;;;;56.38;9.80;;;;;;;2.15;79.37;98593.22;6096124;23;20004;-87
2022/11/22 18:46:55;;;;;;;85.15;10.80;;;;;;;2.81;79.75;98700.88;6221285;23;19997;-88
2022/11/22 18:49:55;;;;;;;39.88;8.88;;;;;;;2.13;79.24;98567.63;6231250;23;20050;-90
2022/11/22 18:56:02;;;;;;;26.50;8.70;;;;;;;2.79;79.84;98686.03;6275813;22;20032;-89
2022/11/22 18:58:32;;;;;;;28.02;8.10;;;;;;;2.49;79.44;98660.00;6212035;22;20019;-90
2022/11/22 19:01:18;;;;;;;38.17;9.13;;;;;;;2.77;79.84;98697.09;6239150;22;20034;-87
2022/11/22 19:03:46;;;;;;;;;;;;;;;2.73;79.53;98697.94;6215963;22;20019;-88
2022/11/22 19:06:17;;;;;;;26.55;8.43;;;;;;;2.25;79.75;98620.16;6238180;22;19986;-89
2022/11/22 19:08:52;;;;;;;16.02;7.55;;;;;;;2.04;79.44;98578.97;6236090;22;20011;-89
2022/11/22 19:11:21;;;;;;;17.17;8.38;;;;;;;2.47;79.26;98641.38;6264641;22;20023;-89
2022/11/22 19:14:39;;;;;;;14.60;7.40;;;;;;;2.79;79.37;98691.44;6242528;22;19999;-89
2022/11/22 19:17:28;;;;;;;19.08;7.70;;;;;;;2.73;79.43;98685.25;6239984;22;20024;-88
2022/11/22 19:19:57;;;;;;;16.38;7.82;;;;;;;2.79;79.32;98681.44;6295386;22;20019;-91
2022/11/22 19:22:29;;;;;;;12.68;6.82;;;;;;;2.61;79.34;98657.75;6257769;22;20115;-88
2022/11/22 19:24:55;;;;;;;13.20;7.25;;;;;;;2.18;79.47;98584.59;6269126;22;20011;-89
2022/11/22 19:27:44;;;;;;;13.30;6.60;;;;;;;2.65;79.37;98658.84;6235980;22;20016;-88
